createdAt,value
2023-02-17T00:04:42.341Z,77.75
2023-02-17T00:09:50.025Z,77.81
2023-02-17T00:14:57.299Z,77.78
2023-02-17T00:19:59.105Z,77.65
2023-02-17T00:25:00.876Z,77.50
2023-02-17T00:30:02.692Z,77.77
2023-02-17T00:35:05.647Z,77.91
2023-02-17T00:40:07.983Z,78.23
2023-02-17T00:45:09.956Z,78.30
2023-02-17T00:50:11.689Z,78.10
2023-02-17T00:55:13.395Z,78.05
2023-02-17T01:00:15.705Z,78.23
2023-02-17T01:05:17.665Z,78.65
2023-02-17T01:10:21.570Z,78.88
2023-02-17T01:15:23.294Z,79.00
2023-02-17T01:20:25.040Z,79.17
2023-02-17T01:25:26.762Z,78.94
2023-02-17T01:30:31.216Z,78.99
2023-02-17T01:35:34.823Z,79.06
2023-02-17T01:40:36.539Z,78.98
2023-02-17T01:45:50.516Z,78.99
2023-02-17T01:51:03.046Z,79.38
2023-02-17T01:56:06.496Z,79.68
2023-02-17T02:01:08.736Z,79.64
2023-02-17T02:06:16.375Z,79.62
2023-02-17T02:11:18.162Z,79.67
2023-02-17T02:16:29.567Z,79.68
2023-02-17T02:21:46.677Z,79.67
2023-02-17T02:27:24.294Z,79.32
2023-02-17T02:32:55.165Z,79.14
2023-02-17T02:38:06.857Z,78.91
2023-02-17T02:43:10.000Z,78.52
2023-02-17T02:48:12.113Z,78.29
2023-02-17T02:53:36.032Z,78.17
2023-02-17T02:59:16.252Z,78.20
2023-02-17T03:04:37.027Z,77.93
2023-02-17T03:09:40.756Z,77.47
2023-02-17T03:14:43.626Z,77.08
2023-02-17T03:19:47.633Z,76.90
2023-02-17T03:24:50.757Z,76.83
2023-02-17T03:29:53.146Z,76.97
2023-02-17T03:34:55.096Z,77.12
2023-02-17T03:39:59.108Z,77.10
2023-02-17T03:45:00.775Z,77.05
2023-02-17T03:50:02.335Z,76.97
2023-02-17T03:55:04.193Z,76.81
2023-02-17T04:00:08.061Z,76.61
2023-02-17T04:05:14.720Z,76.62
2023-02-17T04:10:17.009Z,76.45
2023-02-17T04:15:18.823Z,76.32
2023-02-17T04:20:20.613Z,76.22
2023-02-17T04:25:23.474Z,76.22
2023-02-17T04:30:32.365Z,76.14
2023-02-17T04:35:34.030Z,76.02
2023-02-17T04:40:36.001Z,76.06
2023-02-17T04:45:38.422Z,75.90
2023-02-17T04:50:40.381Z,75.85
2023-02-17T04:55:42.922Z,75.71
2023-02-17T05:00:47.215Z,75.57
2023-02-17T05:05:49.616Z,75.71
2023-02-17T05:10:52.556Z,75.79
2023-02-17T05:15:54.330Z,75.75
2023-02-17T05:20:55.964Z,75.77
2023-02-17T05:25:57.601Z,75.72
2023-02-17T05:31:00.733Z,75.81
2023-02-17T05:36:05.772Z,75.86
2023-02-17T05:41:08.334Z,75.75
2023-02-17T05:46:10.411Z,75.89
2023-02-17T05:51:13.874Z,75.69
2023-02-17T05:56:15.603Z,75.60
2023-02-17T06:01:17.319Z,75.69
2023-02-17T06:06:19.467Z,75.51
2023-02-17T06:11:21.383Z,75.67
2023-02-17T06:16:23.510Z,75.78
2023-02-17T06:21:25.470Z,75.55
2023-02-17T06:26:27.210Z,75.31
2023-02-17T06:31:29.143Z,75.26
2023-02-17T06:36:30.939Z,74.91
2023-02-17T06:41:32.611Z,74.67
2023-02-17T06:46:34.468Z,74.21
2023-02-17T06:51:44.335Z,73.92
2023-02-17T06:56:46.220Z,73.69
2023-02-17T07:01:49.838Z,73.49
2023-02-17T07:06:51.795Z,73.23
2023-02-17T07:11:53.517Z,73.05
2023-02-17T07:16:55.283Z,72.80
2023-02-17T07:21:57.114Z,72.44
2023-02-17T07:26:58.936Z,71.97
2023-02-17T07:32:00.690Z,71.33
2023-02-17T07:37:02.452Z,70.99
2023-02-17T07:42:05.200Z,70.91
2023-02-17T07:47:07.842Z,70.65
2023-02-17T07:52:09.632Z,70.35
2023-02-17T07:57:11.373Z,70.02
2023-02-17T08:02:13.067Z,69.94
2023-02-17T08:07:14.956Z,69.74
2023-02-17T08:12:42.392Z,69.55
2023-02-17T08:17:44.501Z,69.81
2023-02-17T08:22:46.208Z,70.47
2023-02-17T08:27:47.959Z,71.14
2023-02-17T08:32:49.684Z,71.65
2023-02-17T08:37:51.905Z,71.85
2023-02-17T08:42:53.649Z,71.83
2023-02-17T08:47:55.893Z,71.76
2023-02-17T08:52:58.802Z,71.54
2023-02-17T08:58:00.721Z,71.47
2023-02-17T09:03:02.446Z,71.28
2023-02-17T09:08:04.306Z,70.97
2023-02-17T09:13:06.060Z,70.97
2023-02-17T09:18:07.777Z,71.23
2023-02-17T09:23:09.533Z,71.74
2023-02-17T09:28:13.905Z,72.33
2023-02-17T09:33:15.610Z,73.05
2023-02-17T09:38:17.356Z,73.90
2023-02-17T09:43:25.116Z,74.48
2023-02-17T09:48:31.252Z,74.67
2023-02-17T09:54:01.028Z,74.58
2023-02-17T09:59:11.773Z,74.26
2023-02-17T10:04:21.244Z,73.92
2023-02-17T10:09:34.549Z,73.65
2023-02-17T10:14:51.902Z,73.26
2023-02-17T10:20:02.809Z,72.78
2023-02-17T10:25:16.500Z,72.66
2023-02-17T10:30:49.696Z,72.82
2023-02-17T10:35:54.343Z,72.82
2023-02-17T10:40:56.511Z,72.93
2023-02-17T10:46:02.424Z,72.77
2023-02-17T10:51:04.725Z,72.28
2023-02-17T10:56:17.428Z,71.19
2023-02-17T11:01:19.817Z,70.41
2023-02-17T11:06:22.591Z,70.29
2023-02-17T11:11:28.127Z,70.00
2023-02-17T11:16:39.760Z,68.99
2023-02-17T11:21:43.545Z,67.84
2023-02-17T11:27:05.195Z,67.90
2023-02-17T11:32:12.536Z,68.46
2023-02-17T11:37:14.463Z,68.87
2023-02-17T11:42:24.129Z,69.12
2023-02-17T11:47:43.226Z,69.60
2023-02-17T11:53:08.037Z,70.00
2023-02-17T11:58:27.975Z,70.17
2023-02-17T12:04:07.878Z,69.82
2023-02-17T12:09:35.169Z,69.42
2023-02-17T12:14:51.919Z,69.38
2023-02-17T12:20:09.143Z,69.38
2023-02-17T12:25:27.096Z,69.54
2023-02-17T12:30:46.221Z,69.75
2023-02-17T12:36:10.365Z,70.24
2023-02-17T12:41:22.668Z,70.29
2023-02-17T12:46:29.729Z,70.06
2023-02-17T12:52:10.889Z,70.11
2023-02-17T12:57:22.643Z,70.51
2023-02-17T13:02:26.366Z,70.72
2023-02-17T13:07:47.427Z,71.13
2023-02-17T13:13:05.213Z,71.22
2023-02-17T13:18:13.230Z,70.82
2023-02-17T13:23:30.634Z,70.42
2023-02-17T13:28:38.430Z,70.26
2023-02-17T13:33:49.286Z,70.28
2023-02-17T13:39:04.127Z,70.23
2023-02-17T13:44:38.538Z,70.50
2023-02-17T13:49:40.393Z,70.60
2023-02-17T13:54:51.945Z,70.76
2023-02-17T14:00:04.322Z,71.26
2023-02-17T14:05:20.034Z,71.56
2023-02-17T14:10:25.232Z,71.71
2023-02-17T14:15:29.405Z,71.71
2023-02-17T14:20:36.518Z,71.93
2023-02-17T14:25:47.070Z,72.43
2023-02-17T14:30:49.537Z,72.99
2023-02-17T14:36:04.264Z,73.72
2023-02-17T14:41:09.268Z,74.07
2023-02-17T14:46:11.139Z,74.69
2023-02-17T14:51:16.142Z,74.98
2023-02-17T14:56:38.375Z,75.31
2023-02-17T15:01:40.197Z,75.49
2023-02-17T15:06:49.290Z,75.59
2023-02-17T15:11:51.818Z,75.83
2023-02-17T15:16:53.511Z,75.74
2023-02-17T15:21:57.131Z,75.99
2023-02-17T15:27:00.104Z,76.01
2023-02-17T15:32:04.949Z,75.94
2023-02-17T15:37:07.060Z,75.90
2023-02-17T15:42:19.207Z,75.91
2023-02-17T15:47:21.502Z,75.86
2023-02-17T15:52:23.191Z,76.10
2023-02-17T15:57:25.439Z,76.34
2023-02-17T16:02:27.497Z,77.19
2023-02-17T16:07:29.211Z,77.28
2023-02-17T16:12:31.622Z,77.27
2023-02-17T16:17:33.426Z,77.13
2023-02-17T16:22:35.197Z,77.07
2023-02-17T16:27:37.787Z,76.96
2023-02-17T16:32:39.513Z,76.71
2023-02-17T16:37:41.986Z,76.73
2023-02-17T16:42:43.866Z,76.44
2023-02-17T16:47:49.237Z,76.62
2023-02-17T16:52:52.891Z,76.66
2023-02-17T16:57:55.357Z,76.80
2023-02-17T17:02:58.758Z,76.88
2023-02-17T17:08:00.518Z,76.89
2023-02-17T17:13:02.247Z,76.84
2023-02-17T17:18:09.181Z,76.84
2023-02-17T17:23:14.862Z,76.71
2023-02-17T17:28:19.228Z,77.35
2023-02-17T17:33:20.869Z,77.48
2023-02-17T17:38:22.563Z,77.86
2023-02-17T17:43:27.118Z,77.73
2023-02-17T17:48:29.045Z,78.12
2023-02-17T17:53:30.840Z,78.85
2023-02-17T17:58:34.226Z,79.37
2023-02-17T18:03:36.535Z,80.17
2023-02-17T18:08:39.418Z,80.82
2023-02-17T18:13:43.972Z,80.79
2023-02-17T18:18:47.107Z,81.16
2023-02-17T18:23:52.235Z,81.25
2023-02-17T18:28:54.921Z,81.49
2023-02-17T18:33:59.989Z,81.29
2023-02-17T18:39:05.869Z,80.83
2023-02-17T18:44:08.235Z,80.46
2023-02-17T18:49:10.980Z,80.53
2023-02-17T18:54:15.256Z,80.34
2023-02-17T18:59:16.968Z,80.08
2023-02-17T19:04:18.588Z,80.06
2023-02-17T19:09:20.303Z,79.97
2023-02-17T19:14:22.082Z,79.81
2023-02-17T19:19:23.860Z,79.64
2023-02-17T19:24:25.806Z,79.42
2023-02-17T19:29:27.809Z,79.54
2023-02-17T19:34:31.625Z,79.43
2023-02-17T19:39:45.484Z,79.08
2023-02-17T19:44:48.487Z,78.67
2023-02-17T19:49:50.242Z,78.88
2023-02-17T19:55:01.169Z,79.00
2023-02-17T20:00:04.404Z,78.99
2023-02-17T20:05:08.816Z,78.79
2023-02-17T20:10:12.464Z,78.82
2023-02-17T20:15:14.677Z,78.49
2023-02-17T20:20:16.492Z,78.20
2023-02-17T20:25:18.457Z,77.92
2023-02-17T20:30:20.423Z,77.89
2023-02-17T20:35:22.221Z,77.84
2023-02-17T20:40:23.852Z,77.63
2023-02-17T20:45:25.991Z,77.49
2023-02-17T20:50:28.457Z,77.69
2023-02-17T20:55:30.522Z,77.88
2023-02-17T21:00:32.449Z,77.86
2023-02-17T21:05:34.679Z,77.85
2023-02-17T21:10:39.729Z,77.77
2023-02-17T21:15:41.364Z,77.47
2023-02-17T21:20:43.133Z,77.25
2023-02-17T21:25:46.240Z,77.17
2023-02-17T21:30:48.189Z,76.92
2023-02-17T21:35:53.068Z,76.91
2023-02-17T21:40:54.782Z,77.14
2023-02-17T21:45:56.513Z,77.05
2023-02-17T21:51:07.590Z,76.78
2023-02-17T21:56:10.172Z,76.76
2023-02-17T22:01:14.925Z,76.69
2023-02-17T22:06:20.126Z,76.59
2023-02-17T22:11:33.573Z,77.14
2023-02-17T22:16:38.654Z,76.99
2023-02-17T22:21:41.076Z,76.60
2023-02-17T22:26:43.346Z,76.77
2023-02-17T22:31:47.960Z,77.31
2023-02-17T22:36:49.841Z,77.60
2023-02-17T22:41:51.695Z,77.96
2023-02-17T22:46:53.328Z,78.38
2023-02-17T22:51:55.081Z,79.02
2023-02-17T22:56:56.857Z,79.60
2023-02-17T23:01:59.212Z,79.51
2023-02-17T23:07:00.890Z,79.88
2023-02-17T23:12:02.829Z,79.87
2023-02-17T23:17:11.388Z,80.20
